首页
METAR-TAF:

METAR-TAF

机场 :

Chautauqua County/Jamestown Airport

Jamestown, 紐約州, 美国

纬度: 42-09N, 经度: 079-16W, 海拔: 525米

当前天气观测

该预报发布于25分钟前的14:56 UTC
风速3节,风向南转南东
温度 17°C
湿度 100%
气压 1017 hPa
能見度: 16.1公里
阴天层高于700英尺

METAR: KJHW 171456Z AUTO 16003KT 10SM OVC007 17/17 A3002 RMK AO2 CIG 005V010 SLP166 T01720167 53004

时间: 11:21 (15:21 UTC)

预报

该预报发布于22分钟前的14:59 UTC
预报有效从17日的 15点(UTC)到 18日的 12点(UTC)
风速3节,风向多变
能見度: 10公里
多云层高于400英尺
从 17日的 1600点(UTC)
风速4节,风向东南
能見度: 10公里
多云层高于3500英尺
从 17日的 1900点(UTC)
风速5节,风向东北
能見度: 10公里
多云层高于4000英尺
附近有阵雨
从 18日的 0100点(UTC)
风速4节,风向东北
能見度: 10公里
多云层高于5000英尺
从 18日的 0700点(UTC)
风速3节,风向多变
能見度: 10公里
多云层高于700英尺

TAF: KJHW 171459Z 1715/1812 VRB03KT P6SM BKN004 FM171600 13004KT P6SM BKN035 FM171900 05005KT P6SM VCSH BKN040 FM180100 04004KT P6SM BKN050 FM180700 VRB03KT P6SM BKN007

超过4000个机场的气象观测和天气预报(METAR&TAF报告)。

可查询的气象台以黄色和红色小点在地图上表示。

将鼠标移到小点上方,可查看气象台名称。

然后点击查看天气观测和预报。

如需切换地图:点击带黑十字的绿色按钮放大地图;点击带横线的绿色按钮缩小地图;或者点击绿色箭头查看邻近地区的地图。


METAR-TAF: